History for KNYMEATP2

New York City, Meatpacking District, NY — Current Conditions
Daily Summary for August 22, 2017
  Current: High: Low: Average:
Temperature: 86.5°F 87.4°F 73.9°F 80.7°F
Dew Point: 75.8°F 78.2°F 71.5°F 74.6°F
Humidity: 70% 96% 68% 85%
Wind Speed: - 0.0mph - 0.0mph
Wind Gust: - 0.0mph - -
Wind: North - - North
Pressure: 29.80in 30.10in 29.80in -
Precipitation: 0.00in      
Statistics for the rest of the month
    High: Low: Average:
Temperature:   89.2°F 63.0°F 75.1°F
Dew Point:   83.9°F 55.7°F 68.2°F
Humidity:   100.0% 49.0% 80.4%
Wind Speed:   0.0mph from the North - 0.0mph
Wind Gust:   0.0mph from the North - -
Wind:   - - North
Pressure:   30.25in 29.77in -
Precipitation:   0.00in    
KNYMEATP2 Weather Graph
Tabular Data for August 22, 2017
Time Temp. Heat Index Dew Point Pressure Wind Gust Humidity Rainfall
00:12 76.6°F - 72.2°F 30.10in - 86% -
00:32 76.3°F - 71.9°F 30.10in - 86% -
00:42 76.3°F - 71.9°F 30.09in - 86% -
01:02 76.1°F - 72.0°F 30.09in - 87% -
01:12 76.1°F - 72.4°F 30.09in - 88% -
01:33 75.7°F - 72.0°F 30.08in - 88% -
01:43 75.7°F - 72.0°F 30.08in - 88% -
02:03 75.4°F - 71.7°F 30.07in - 88% -
02:13 75.2°F - 71.5°F 30.06in - 88% -
02:33 75.2°F - 71.8°F 30.06in - 89% -
02:43 75.0°F - 71.9°F 30.06in - 90% -
03:03 75.0°F - 71.9°F 30.06in - 90% -
03:13 74.8°F - 71.8°F 30.05in - 90% -
03:34 74.8°F - 72.1°F 30.05in - 91% -
03:44 74.7°F - 71.9°F 30.04in - 91% -
04:14 74.5°F - 72.4°F 30.04in - 93% -
04:34 74.3°F - 72.2°F 30.04in - 93% -
04:44 74.3°F - 72.2°F 30.04in - 93% -
05:04 74.1°F - 72.3°F 30.04in - 94% -
05:14 74.1°F - 72.3°F 30.04in - 94% -
05:35 73.9°F - 72.4°F 30.04in - 95% -
05:45 73.9°F - 72.4°F 30.03in - 95% -
06:05 73.9°F - 72.4°F 30.03in - 95% -
06:15 73.9°F - 72.8°F 30.03in - 96% -
06:35 73.9°F - 72.8°F 30.03in - 96% -
06:45 73.9°F - 72.8°F 30.04in - 96% -
07:05 74.1°F - 72.9°F 30.03in - 96% -
07:15 74.3°F - 73.1°F 30.02in - 96% -
07:45 75.0°F - 73.5°F 30.03in - 95% -
07:55 75.0°F - 73.5°F 30.03in - 95% -
08:25 75.6°F - 74.1°F 30.03in - 95% -
08:46 75.9°F - 74.1°F 30.02in - 94% -
09:16 77.0°F - 74.9°F 30.02in - 93% -
09:36 78.6°F - 75.5°F 30.00in - 90% -
09:46 78.8°F - 75.4°F 30.01in - 89% -
10:25 79.7°F - 75.6°F 30.00in - 87% -
10:47 80.1°F 85.5°F 75.9°F 30.00in - 87% -
10:55 80.1°F 85.5°F 75.9°F 30.00in - 87% -
11:17 82.4°F 90.6°F 76.8°F 29.99in - 83% -
11:26 82.4°F 90.6°F 76.8°F 29.99in - 83% -
11:47 84.7°F 95.5°F 77.7°F 29.97in - 79% -
11:56 84.7°F 95.5°F 77.7°F 29.97in - 79% -
12:18 85.6°F 97.2°F 77.8°F 29.96in - 77% -
12:25 85.6°F 97.2°F 77.8°F 29.96in - 77% -
12:48 85.6°F 97.6°F 78.2°F 29.95in - 78% -
12:55 85.6°F 97.6°F 78.2°F 29.95in - 78% -
13:18 84.7°F 95.1°F 77.3°F 29.94in - 78% -
13:26 84.7°F 95.1°F 77.3°F 29.94in - 78% -
13:48 84.6°F 94.8°F 77.1°F 29.93in - 78% -
13:55 84.6°F 94.8°F 77.1°F 29.93in - 78% -
14:19 84.9°F 95.2°F 77.1°F 29.91in - 77% -
14:26 84.9°F 95.2°F 77.1°F 29.91in - 77% -
14:49 85.8°F 97.3°F 77.6°F 29.89in - 76% -
14:55 85.8°F 97.3°F 77.6°F 29.89in - 76% -
15:19 86.5°F 97.7°F 77.1°F 29.87in - 73% -
15:25 86.5°F 97.7°F 77.1°F 29.87in - 73% -
15:49 87.3°F 98.9°F 77.0°F 29.85in - 71% -
15:55 87.3°F 98.9°F 77.0°F 29.85in - 71% -
16:09 87.4°F 98.6°F 76.7°F 29.84in - 70% -
16:40 87.4°F 98.1°F 76.3°F 29.83in - 69% -
17:10 87.1°F 96.8°F 75.5°F 29.82in - 68% -
17:40 87.1°F 97.3°F 75.9°F 29.81in - 69% -
18:10 86.5°F 96.3°F 75.8°F 29.80in - 70% -
Comma Delimited File
Powered by Weather Underground, Inc.